Kuujjuarapik Airport
CYGW : rendu visible

Aérodrome :











RETROUVEZ-NOUS SUR...

 
LOGIN :

S'inscrire | Disclaimer

   EN    FR    IT 

 









Légende :    VFR   VFR Marginal   IFR   IFR Intensif   IFR Très Intensif
Visi : 
Plafond : 
>= 8 km
>= 3000ft
5 à 8 km
1000 à 3000 ft
1500m à 5 km
500 à 1000 ft
800 à 1500m
200 à 500 ft
< 800m
< 200 ft
Symboles :   Orages  Brouillard  Fortes neiges  Fortes précipitations  Vent > 20 kt






- Altitude de l'aérodrome : 34 ft
- Code IATA : YGW


CYGW - Kuujjuarapik

DERNIER METAR :
  • 100700Z AUTO 12009KT 9SM OVC095 M17/M20 A2964 RMK SLP040

METARs EXPIRÉS :
  • 100600Z AUTO 12010KT 9SM FEW110 M17/M20 A2966 RMK SLP047
  • 100500Z AUTO 13009KT 9SM CLR M17/M19 A2970 RMK SLP060

TAF TAF CYGW
Valide du 10 à 06h jusqu'au 10 à 18h UTC


100546Z 1006/1018 13009KT P6SM FEW015 BKN100
FM100800 13008KT P6SM FEW030 OVC080
TEMPO 1008/1015 21/2SM -SN BKN030 OVC080
FM101500 19010KT 6SM -SN SCT012 BKN025
TEMPO 1015/1018 11/2SM -SHSN BKN012 OVC025
PROB30 1016/1018 3/4SM -SHSN RMK FCST BASED ON AUTO OBS. NXT FCST BY 101200Z



MET'MAP, la Météo Aéronautique d'un coup d'oeil ! - Copyright ORBIFLY Décembre 2007 - Disclaimer

ORBIFLY MET'MAP TEAM :

Programmation & Développement : Alexandra Zaïnal
Sur une idée originale de : Baudouin d'Aumeries
Assistance à la programmation : Marc-Olivier Méhu
Soutien technique & logistique : Manuel Goepfert

Contact : metmap@orbifly.com




SOURCES & CREDITS :

   NOAA       Earth
Advisory